Time;durP1;ratioP1;P1;durP2;ratioP2;P2;SDS_P1;SDS_P2;PMS_P1;PMS_P2;Temp;Humidity;BMP_temperature;BMP_pressure;BME280_temperature;BME280_humidity;BME280_pressure;Samples;Min_cycle;Max_cycle;Signal;HPM_P1;HPM_P2
2022/03/24 00:00:39;;;;;;;0.70;0.38;;;;;;;;;;5098595;28;20043;-44
2022/03/24 00:03:04;;;;;;;2.35;0.57;;;;;;;;;;5099993;28;20087;-49
2022/03/24 00:05:30;;;;;;;1.50;0.85;;;;;;;;;;5098943;28;20079;-46
2022/03/24 00:07:55;;;;;;;2.15;1.45;;;;;;;;;;5098320;28;20121;-46
2022/03/24 00:10:20;;;;;;;2.97;1.48;;;;;;;;;;5098274;28;20626;-47
2022/03/24 00:12:46;;;;;;;3.22;1.42;;;;;;;;;;5097482;28;20052;-45
2022/03/24 00:15:11;;;;;;;5.45;1.10;;;;;;;;;;5099110;28;20108;-47
2022/03/24 00:17:37;;;;;;;5.13;1.20;;;;;;;;;;5097562;28;20615;-44
2022/03/24 00:20:02;;;;;;;2.20;0.60;;;;;;;;;;5095455;28;20514;-49
2022/03/24 00:22:28;;;;;;;3.72;1.45;;;;;;;;;;5097691;28;20088;-47
2022/03/24 00:24:53;;;;;;;1.40;0.73;;;;;;;;;;5096274;28;20131;-49
2022/03/24 00:27:19;;;;;;;3.63;1.67;;;;;;;;;;5096392;28;20130;-51
2022/03/24 00:29:45;;;;;;;1.13;0.60;;;;;;;;;;5099314;28;20502;-50
2022/03/24 00:32:10;;;;;;;12.90;2.47;;;;;;;;;;5095083;28;20055;-48
2022/03/24 00:34:36;;;;;;;3.35;1.48;;;;;;;;;;5097817;28;20044;-46
2022/03/24 00:37:03;;;;;;;0.95;0.38;;;;;;;;;;5099587;28;20446;-45
2022/03/24 00:39:33;;;;;;;3.33;1.40;;;;;;;;;;5095880;28;20128;-47
2022/03/24 00:41:58;;;;;;;1.90;1.08;;;;;;;;;;5102628;28;20047;-50
2022/03/24 00:44:24;;;;;;;1.75;0.73;;;;;;;;;;5094500;28;20769;-47
2022/03/24 00:46:50;;;;;;;1.65;1.00;;;;;;;;;;5096079;28;20036;-44
2022/03/24 00:49:15;;;;;;;1.63;0.75;;;;;;;;;;5097555;28;20902;-45
2022/03/24 00:51:40;;;;;;;3.75;0.38;;;;;;;;;;5097773;28;20085;-46
2022/03/24 00:54:07;;;;;;;1.48;0.55;;;;;;;;;;5096068;28;20559;-44
2022/03/24 00:56:32;;;;;;;0.93;0.63;;;;;;;;;;5096805;28;20197;-43
2022/03/24 00:58:58;;;;;;;0.88;0.57;;;;;;;;;;5096609;28;20123;-42
2022/03/24 01:01:23;;;;;;;1.00;0.60;;;;;;;;;;5098148;28;20203;-41
2022/03/24 01:03:51;;;;;;;1.13;0.60;;;;;;;;;;5098181;28;20706;-43
2022/03/24 01:06:17;;;;;;;2.40;1.23;;;;;;;;;;5094810;28;20108;-47
2022/03/24 01:08:42;;;;;;;1.10;0.77;;;;;;;;;;5094925;28;20039;-49
2022/03/24 01:11:08;;;;;;;0.73;0.70;;;;;;;;;;5094398;28;20094;-45
2022/03/24 01:13:34;;;;;;;1.13;0.75;;;;;;;;;;5097631;28;20062;-49
2022/03/24 01:15:59;;;;;;;1.95;1.05;;;;;;;;;;5095524;28;20035;-45
2022/03/24 01:18:24;;;;;;;0.20;0.20;;;;;;;;;;5096256;28;20548;-45
2022/03/24 01:20:50;;;;;;;0.25;0.20;;;;;;;;;;5096833;28;20055;-44
2022/03/24 01:23:15;;;;;;;2.05;0.75;;;;;;;;;;5096819;28;20075;-43
2022/03/24 01:25:44;;;;;;;0.50;0.30;;;;;;;;;;5099305;28;20063;-45
2022/03/24 01:28:10;;;;;;;0.35;0.20;;;;;;;;;;5097838;28;20051;-45
2022/03/24 01:30:36;;;;;;;0.20;0.20;;;;;;;;;;5098573;28;20043;-48
2022/03/24 01:33:01;;;;;;;0.63;0.52;;;;;;;;;;5099899;28;20073;-46
2022/03/24 01:35:27;;;;;;;2.33;0.40;;;;;;;;;;5099389;28;20039;-45
2022/03/24 01:37:52;;;;;;;1.85;0.35;;;;;;;;;;5095425;28;20518;-45
2022/03/24 01:40:17;;;;;;;2.30;1.27;;;;;;;;;;5096484;28;20128;-45
2022/03/24 01:42:43;;;;;;;1.63;0.77;;;;;;;;;;5098884;28;20079;-47
2022/03/24 01:45:09;;;;;;;1.70;0.80;;;;;;;;;;5095706;28;20040;-49
2022/03/24 01:47:35;;;;;;;1.75;1.00;;;;;;;;;;5096559;28;20479;-44
2022/03/24 01:50:01;;;;;;;1.35;1.02;;;;;;;;;;5099235;28;20044;-48
2022/03/24 01:52:26;;;;;;;1.38;0.57;;;;;;;;;;5095770;28;20097;-49
2022/03/24 01:54:53;;;;;;;3.63;1.55;;;;;;;;;;5097173;28;20032;-49
2022/03/24 01:57:19;;;;;;;2.33;1.35;;;;;;;;;;5097037;28;20039;-44
2022/03/24 01:59:44;;;;;;;4.10;1.08;;;;;;;;;;5095855;28;20036;-46
2022/03/24 02:02:10;;;;;;;1.08;0.63;;;;;;;;;;5097379;28;20044;-44
2022/03/24 02:04:36;;;;;;;1.95;0.73;;;;;;;;;;5096121;28;20562;-46
2022/03/24 02:07:02;;;;;;;1.02;0.60;;;;;;;;;;5095662;28;20467;-45
2022/03/24 02:09:28;;;;;;;7.60;1.15;;;;;;;;;;5094387;28;20060;-44
2022/03/24 02:11:53;;;;;;;0.73;0.50;;;;;;;;;;5096581;28;20126;-45
2022/03/24 02:14:18;;;;;;;1.75;0.75;;;;;;;;;;5096210;28;20047;-48
2022/03/24 02:16:46;;;;;;;2.90;0.85;;;;;;;;;;5099195;28;20492;-45
2022/03/24 02:19:12;;;;;;;0.85;0.63;;;;;;;;;;5097513;28;20051;-45
2022/03/24 02:21:39;;;;;;;3.80;0.93;;;;;;;;;;5096966;28;20047;-47
2022/03/24 02:24:05;;;;;;;2.17;1.05;;;;;;;;;;5097510;28;20062;-49
2022/03/24 02:26:30;;;;;;;1.48;0.80;;;;;;;;;;5097927;28;20047;-45
2022/03/24 02:28:56;;;;;;;1.80;0.82;;;;;;;;;;5099309;28;20040;-48
2022/03/24 02:31:23;;;;;;;5.60;1.45;;;;;;;;;;5098959;28;20056;-48
2022/03/24 02:33:48;;;;;;;2.85;1.63;;;;;;;;;;5100599;28;20048;-49
2022/03/24 02:36:13;;;;;;;2.42;1.33;;;;;;;;;;5097875;28;20047;-43
2022/03/24 02:38:38;;;;;;;2.55;1.25;;;;;;;;;;5094420;28;20035;-46
2022/03/24 02:41:04;;;;;;;5.32;0.75;;;;;;;;;;5094610;28;20407;-46
2022/03/24 02:43:30;;;;;;;1.80;0.95;;;;;;;;;;5096416;28;20082;-45
2022/03/24 02:45:57;;;;;;;1.25;0.80;;;;;;;;;;5096351;28;20157;-44
2022/03/24 02:48:23;;;;;;;1.55;0.93;;;;;;;;;;5099237;28;20051;-46
2022/03/24 02:50:48;;;;;;;4.88;1.80;;;;;;;;;;5095347;28;20036;-45
2022/03/24 02:53:14;;;;;;;1.20;0.90;;;;;;;;;;5094733;28;20050;-44
2022/03/24 02:55:39;;;;;;;1.10;0.85;;;;;;;;;;5098501;28;20138;-45
2022/03/24 02:58:05;;;;;;;3.92;1.52;;;;;;;;;;5101988;28;20479;-47
2022/03/24 03:00:30;;;;;;;2.92;1.77;;;;;;;;;;5099090;28;20124;-46
2022/03/24 03:02:55;;;;;;;4.22;1.40;;;;;;;;;;5103003;28;20646;-45
2022/03/24 03:05:21;;;;;;;2.42;1.38;;;;;;;;;;5097700;27;20105;-46
2022/03/24 03:07:47;;;;;;;2.05;1.20;;;;;;;;;;5097748;28;20051;-46
2022/03/24 03:10:13;;;;;;;4.40;1.88;;;;;;;;;;5100852;28;20044;-48
2022/03/24 03:12:38;;;;;;;12.40;2.47;;;;;;;;;;5101736;28;20138;-47
2022/03/24 03:15:04;;;;;;;4.90;1.95;;;;;;;;;;5098228;28;20036;-45
2022/03/24 03:17:29;;;;;;;5.65;3.22;;;;;;;;;;5098088;28;20068;-44
2022/03/24 03:19:55;;;;;;;6.43;3.50;;;;;;;;;;5098901;28;20091;-50
2022/03/24 03:22:21;;;;;;;4.72;4.05;;;;;;;;;;5098361;28;20079;-44
2022/03/24 03:24:46;;;;;;;10.27;4.75;;;;;;;;;;5099094;28;20051;-44
2022/03/24 03:27:12;;;;;;;6.00;4.15;;;;;;;;;;5101461;28;20104;-46
2022/03/24 03:29:37;;;;;;;5.78;4.05;;;;;;;;;;5100392;28;20046;-52
2022/03/24 03:32:03;;;;;;;6.80;4.03;;;;;;;;;;5099119;28;20044;-47
2022/03/24 03:34:28;;;;;;;13.52;5.93;;;;;;;;;;5099201;28;20051;-45
2022/03/24 03:36:54;;;;;;;9.93;5.15;;;;;;;;;;5099973;28;20051;-47
2022/03/24 03:39:19;;;;;;;18.15;7.95;;;;;;;;;;5099733;28;20124;-45
2022/03/24 03:41:45;;;;;;;12.07;8.32;;;;;;;;;;5097486;28;20066;-44
2022/03/24 03:44:11;;;;;;;9.10;6.25;;;;;;;;;;5101015;28;20684;-45
2022/03/24 03:46:36;;;;;;;14.60;7.30;;;;;;;;;;5099271;28;20154;-44
2022/03/24 03:49:02;;;;;;;8.20;7.30;;;;;;;;;;5097440;28;20177;-46
2022/03/24 03:51:29;;;;;;;17.75;8.50;;;;;;;;;;5098617;28;20702;-46
2022/03/24 03:53:55;;;;;;;12.48;7.78;;;;;;;;;;5098431;28;20518;-47
2022/03/24 03:56:21;;;;;;;20.63;8.00;;;;;;;;;;5097692;28;20047;-48
2022/03/24 03:58:46;;;;;;;12.02;7.22;;;;;;;;;;5101871;28;20422;-48
2022/03/24 04:01:12;;;;;;;15.00;7.25;;;;;;;;;;5101093;28;20161;-43
2022/03/24 04:03:38;;;;;;;9.35;6.30;;;;;;;;;;5096300;28;20054;-44
2022/03/24 04:06:11;;;;;;;11.55;7.68;;;;;;;;;;5098783;28;20047;-45
2022/03/24 04:08:37;;;;;;;14.70;7.47;;;;;;;;;;5098340;28;20054;-48
2022/03/24 04:11:03;;;;;;;12.77;8.55;;;;;;;;;;5099536;28;20063;-46
2022/03/24 04:13:29;;;;;;;14.77;7.25;;;;;;;;;;5096535;28;20059;-45
2022/03/24 04:15:54;;;;;;;16.45;8.85;;;;;;;;;;5098844;28;20032;-45
2022/03/24 04:18:20;;;;;;;15.82;8.55;;;;;;;;;;5096705;28;20501;-45
2022/03/24 04:20:45;;;;;;;10.70;7.93;;;;;;;;;;5095279;28;20048;-44
2022/03/24 04:23:14;;;;;;;12.38;7.88;;;;;;;;;;5096952;28;20044;-45
2022/03/24 04:25:39;;;;;;;22.58;9.10;;;;;;;;;;5094974;28;20101;-45
2022/03/24 04:28:05;;;;;;;11.15;7.57;;;;;;;;;;5096636;28;20044;-44
2022/03/24 04:30:31;;;;;;;12.52;8.75;;;;;;;;;;5097443;28;20051;-44
2022/03/24 04:32:56;;;;;;;9.93;8.05;;;;;;;;;;5099430;28;20044;-49
2022/03/24 04:35:22;;;;;;;16.40;8.63;;;;;;;;;;5101171;28;20084;-45
2022/03/24 04:37:48;;;;;;;15.80;6.95;;;;;;;;;;5098865;28;20138;-46
2022/03/24 04:40:16;;;;;;;16.35;7.38;;;;;;;;;;5098283;28;20089;-46
2022/03/24 04:42:42;;;;;;;8.63;6.95;;;;;;;;;;5100847;28;20115;-44
2022/03/24 04:45:09;;;;;;;11.10;7.15;;;;;;;;;;5097893;28;20036;-46
2022/03/24 04:47:34;;;;;;;15.77;6.65;;;;;;;;;;5094845;28;20101;-44
2022/03/24 04:50:00;;;;;;;17.48;7.93;;;;;;;;;;5099768;28;20035;-46
2022/03/24 04:52:25;;;;;;;14.50;9.10;;;;;;;;;;5098327;28;20080;-44
2022/03/24 04:54:50;;;;;;;13.27;8.57;;;;;;;;;;5099796;28;20082;-48
2022/03/24 04:57:16;;;;;;;8.68;7.60;;;;;;;;;;5101023;28;20154;-49
2022/03/24 04:59:41;;;;;;;11.90;9.77;;;;;;;;;;5095380;28;20047;-49
2022/03/24 05:02:08;;;;;;;11.93;7.63;;;;;;;;;;5098962;28;20579;-46
2022/03/24 05:04:34;;;;;;;10.38;8.32;;;;;;;;;;5099336;28;20059;-45
2022/03/24 05:06:59;;;;;;;12.32;7.32;;;;;;;;;;5096717;28;20039;-49
2022/03/24 05:09:25;;;;;;;7.47;6.70;;;;;;;;;;5096024;28;20105;-50
2022/03/24 05:11:50;;;;;;;9.13;7.95;;;;;;;;;;5098195;28;20218;-46
2022/03/24 05:14:15;;;;;;;14.68;7.97;;;;;;;;;;5097371;28;20136;-48
2022/03/24 05:16:41;;;;;;;20.77;8.82;;;;;;;;;;5098385;28;20510;-48
2022/03/24 05:19:06;;;;;;;14.55;7.60;;;;;;;;;;5094249;28;20072;-49
2022/03/24 05:21:32;;;;;;;10.55;6.72;;;;;;;;;;5098571;28;20055;-48
2022/03/24 05:23:58;;;;;;;19.27;8.05;;;;;;;;;;5097203;28;20139;-48
2022/03/24 05:26:24;;;;;;;13.40;9.00;;;;;;;;;;5097731;28;20485;-47
2022/03/24 05:28:53;;;;;;;10.73;8.80;;;;;;;;;;5098167;28;20039;-47
2022/03/24 05:31:20;;;;;;;15.95;11.65;;;;;;;;;;5096431;28;20058;-44
2022/03/24 05:33:45;;;;;;;12.30;10.68;;;;;;;;;;5095476;28;20053;-49
2022/03/24 05:36:11;;;;;;;9.57;8.60;;;;;;;;;;5094751;28;20134;-48
2022/03/24 05:38:36;;;;;;;13.30;9.45;;;;;;;;;;5096527;28;20052;-45
2022/03/24 05:41:02;;;;;;;11.63;7.82;;;;;;;;;;5097110;28;20048;-45
2022/03/24 05:43:28;;;;;;;18.50;10.18;;;;;;;;;;5097643;28;20052;-47
2022/03/24 05:45:53;;;;;;;9.30;7.55;;;;;;;;;;5093348;28;20066;-45
2022/03/24 05:48:19;;;;;;;7.90;6.85;;;;;;;;;;5095546;28;20043;-42
2022/03/24 05:50:44;;;;;;;29.20;9.98;;;;;;;;;;5095254;28;20047;-44
2022/03/24 05:53:09;;;;;;;8.90;6.35;;;;;;;;;;5098158;28;20074;-45
2022/03/24 05:55:36;;;;;;;11.52;7.63;;;;;;;;;;5096337;28;20036;-43
2022/03/24 05:58:01;;;;;;;12.38;9.27;;;;;;;;;;5098847;28;20052;-45
2022/03/24 06:00:27;;;;;;;9.00;6.82;;;;;;;;;;5096100;28;20047;-47
2022/03/24 06:02:54;;;;;;;12.18;7.60;;;;;;;;;;5095445;28;20096;-46
2022/03/24 06:05:20;;;;;;;9.95;7.30;;;;;;;;;;5093586;28;20044;-45
2022/03/24 06:07:46;;;;;;;12.65;7.35;;;;;;;;;;5097135;28;21286;-43
2022/03/24 06:10:11;;;;;;;14.43;6.28;;;;;;;;;;5097616;28;20047;-43
2022/03/24 06:12:37;;;;;;;11.73;6.15;;;;;;;;;;5096028;28;20044;-43
2022/03/24 06:15:04;;;;;;;8.60;5.50;;;;;;;;;;5097167;28;20176;-43
2022/03/24 06:17:29;;;;;;;7.75;5.55;;;;;;;;;;5099047;28;20095;-46
2022/03/24 06:19:54;;;;;;;9.02;5.53;;;;;;;;;;5097253;28;20052;-48
2022/03/24 06:22:20;;;;;;;7.65;5.25;;;;;;;;;;5096921;28;20404;-44
2022/03/24 06:24:45;;;;;;;8.13;4.97;;;;;;;;;;5100067;28;20043;-46
2022/03/24 06:27:10;;;;;;;6.72;4.90;;;;;;;;;;5098594;28;20066;-44
2022/03/24 06:29:36;;;;;;;7.10;5.45;;;;;;;;;;5095448;28;20097;-42
2022/03/24 06:32:01;;;;;;;6.53;4.20;;;;;;;;;;5096051;28;20523;-43
2022/03/24 06:34:27;;;;;;;11.13;5.30;;;;;;;;;;5101924;28;20044;-47
2022/03/24 06:36:54;;;;;;;6.65;5.10;;;;;;;;;;5099095;28;20192;-44
2022/03/24 06:39:19;;;;;;;8.40;4.85;;;;;;;;;;5098493;28;20438;-45
2022/03/24 06:41:44;;;;;;;7.90;4.15;;;;;;;;;;5102107;28;20055;-45
2022/03/24 06:44:10;;;;;;;7.43;3.78;;;;;;;;;;5099579;28;20048;-47
2022/03/24 06:46:35;;;;;;;6.82;4.45;;;;;;;;;;5099232;28;20143;-47
2022/03/24 06:49:01;;;;;;;8.85;5.13;;;;;;;;;;5100043;28;20055;-44
2022/03/24 06:51:26;;;;;;;6.50;3.95;;;;;;;;;;5100835;28;20601;-43
2022/03/24 06:53:52;;;;;;;4.32;3.92;;;;;;;;;;5100406;28;20134;-47
2022/03/24 06:56:17;;;;;;;11.35;4.93;;;;;;;;;;5097360;28;20053;-44
2022/03/24 06:58:43;;;;;;;5.65;5.10;;;;;;;;;;5100229;28;20048;-44
2022/03/24 07:01:09;;;;;;;4.43;3.88;;;;;;;;;;5100682;28;20858;-46
2022/03/24 07:03:34;;;;;;;5.82;5.13;;;;;;;;;;5101106;28;20035;-44
2022/03/24 07:06:01;;;;;;;7.20;5.10;;;;;;;;;;5097410;28;20111;-46
2022/03/24 07:08:27;;;;;;;7.13;4.72;;;;;;;;;;5099276;28;20040;-44
2022/03/24 07:10:52;;;;;;;5.78;4.80;;;;;;;;;;5103331;28;20038;-47
2022/03/24 07:13:17;;;;;;;9.25;3.80;;;;;;;;;;5096182;28;20050;-46
2022/03/24 07:15:43;;;;;;;11.32;4.32;;;;;;;;;;5101882;28;20136;-45
2022/03/24 07:18:09;;;;;;;5.72;2.75;;;;;;;;;;5100935;28;20138;-46
2022/03/24 07:20:35;;;;;;;4.95;3.25;;;;;;;;;;5096722;28;20040;-46
2022/03/24 07:23:02;;;;;;;9.45;4.03;;;;;;;;;;5097143;28;20051;-44
2022/03/24 07:25:28;;;;;;;10.00;4.50;;;;;;;;;;5099116;28;20063;-42
2022/03/24 07:27:54;;;;;;;10.00;4.60;;;;;;;;;;5096450;28;20048;-46
2022/03/24 07:30:19;;;;;;;16.65;5.88;;;;;;;;;;5099191;28;20095;-43
2022/03/24 07:32:44;;;;;;;6.55;5.07;;;;;;;;;;5096116;28;20673;-43
2022/03/24 07:35:11;;;;;;;6.68;5.35;;;;;;;;;;5100544;28;20050;-46
2022/03/24 07:37:36;;;;;;;9.55;4.40;;;;;;;;;;5098451;28;20503;-46
2022/03/24 07:40:02;;;;;;;5.57;4.95;;;;;;;;;;5101236;28;20054;-47
2022/03/24 07:42:27;;;;;;;10.15;4.28;;;;;;;;;;5098419;28;20048;-44
2022/03/24 07:44:52;;;;;;;12.38;6.28;;;;;;;;;;5098363;28;20514;-43
2022/03/24 07:47:18;;;;;;;6.50;4.45;;;;;;;;;;5097326;28;20100;-45
2022/03/24 07:49:43;;;;;;;8.07;4.13;;;;;;;;;;5100339;28;20051;-47
2022/03/24 07:52:11;;;;;;;9.50;5.50;;;;;;;;;;5095903;28;20578;-50
2022/03/24 07:54:45;;;;;;;9.57;5.40;;;;;;;;;;5096853;28;20503;-38
2022/03/24 07:57:10;;;;;;;7.88;5.22;;;;;;;;;;5098286;28;20047;-45
2022/03/24 07:59:36;;;;;;;6.55;4.53;;;;;;;;;;5095512;28;20051;-44
2022/03/24 08:02:01;;;;;;;9.52;4.60;;;;;;;;;;5098759;28;20040;-44
2022/03/24 08:04:26;;;;;;;11.15;6.70;;;;;;;;;;5099640;28;20059;-43
2022/03/24 08:06:52;;;;;;;7.65;4.80;;;;;;;;;;5098985;28;20073;-43
2022/03/24 08:09:18;;;;;;;7.63;5.55;;;;;;;;;;5097145;28;20040;-45
2022/03/24 08:11:43;;;;;;;7.50;5.22;;;;;;;;;;5099635;28;20048;-43
2022/03/24 08:14:09;;;;;;;5.60;4.68;;;;;;;;;;5096253;28;20044;-45
2022/03/24 08:16:34;;;;;;;6.97;4.40;;;;;;;;;;5098698;28;20036;-45
2022/03/24 08:19:00;;;;;;;5.45;4.10;;;;;;;;;;5100349;28;20044;-43
2022/03/24 08:21:26;;;;;;;15.80;5.43;;;;;;;;;;5098001;28;20044;-44
2022/03/24 08:23:51;;;;;;;6.88;5.13;;;;;;;;;;5094549;28;20054;-43
2022/03/24 08:26:17;;;;;;;13.75;5.05;;;;;;;;;;5095677;28;20051;-42
2022/03/24 08:28:42;;;;;;;8.45;4.47;;;;;;;;;;5098568;28;20041;-42
2022/03/24 08:31:08;;;;;;;8.73;4.78;;;;;;;;;;5097677;28;20176;-42
2022/03/24 08:33:33;;;;;;;9.13;6.05;;;;;;;;;;5098183;28;20165;-45
2022/03/24 08:35:59;;;;;;;5.32;4.82;;;;;;;;;;5099512;28;20495;-46
2022/03/24 08:38:25;;;;;;;6.95;5.55;;;;;;;;;;5096924;28;20040;-47
2022/03/24 08:40:51;;;;;;;12.45;5.93;;;;;;;;;;5101100;28;20054;-45
2022/03/24 08:43:16;;;;;;;10.43;5.57;;;;;;;;;;5099321;28;20145;-44
2022/03/24 08:45:41;;;;;;;9.95;7.03;;;;;;;;;;5097371;28;20048;-43
2022/03/24 08:48:07;;;;;;;8.82;4.88;;;;;;;;;;5098332;28;20048;-42
2022/03/24 08:50:34;;;;;;;7.30;5.40;;;;;;;;;;5096790;28;20048;-41
2022/03/24 08:53:00;;;;;;;10.25;4.53;;;;;;;;;;5099786;28;20726;-43
2022/03/24 08:55:25;;;;;;;10.40;5.03;;;;;;;;;;5099641;28;20045;-46
2022/03/24 08:57:51;;;;;;;14.63;11.10;;;;;;;;;;5097347;28;20043;-42
2022/03/24 09:00:17;;;;;;;8.70;5.28;;;;;;;;;;5096583;28;20040;-42
2022/03/24 09:02:47;;;;;;;6.82;5.95;;;;;;;;;;5098061;28;20553;-41
2022/03/24 09:05:13;;;;;;;21.83;15.30;;;;;;;;;;5097795;28;20118;-44
2022/03/24 09:07:39;;;;;;;6.38;4.47;;;;;;;;;;5098972;28;20114;-47
2022/03/24 09:10:06;;;;;;;7.95;5.00;;;;;;;;;;5097695;28;20615;-49
2022/03/24 09:12:32;;;;;;;7.35;5.82;;;;;;;;;;5096670;28;20035;-52
2022/03/24 09:14:57;;;;;;;5.70;5.13;;;;;;;;;;5098881;28;20048;-57
2022/03/24 09:17:23;;;;;;;12.30;8.15;;;;;;;;;;5097575;28;20051;-50
2022/03/24 09:19:48;;;;;;;5.05;3.80;;;;;;;;;;5098161;28;20042;-54
2022/03/24 09:22:14;;;;;;;4.85;2.78;;;;;;;;;;5096804;28;20466;-53
2022/03/24 09:24:39;;;;;;;39.40;22.92;;;;;;;;;;5097380;28;20041;-58
2022/03/24 09:27:05;;;;;;;7.53;5.32;;;;;;;;;;5098375;28;20066;-58
2022/03/24 09:29:31;;;;;;;3.85;3.17;;;;;;;;;;5095798;28;20123;-58
2022/03/24 09:31:57;;;;;;;4.13;2.83;;;;;;;;;;5095858;28;20135;-54
2022/03/24 09:34:22;;;;;;;6.00;3.15;;;;;;;;;;5096295;28;20511;-52
2022/03/24 09:36:47;;;;;;;7.60;4.15;;;;;;;;;;5095104;28;20410;-47
2022/03/24 09:39:14;;;;;;;5.80;4.35;;;;;;;;;;5095621;28;20047;-50
2022/03/24 09:41:40;;;;;;;9.40;3.90;;;;;;;;;;5097423;28;20040;-47
2022/03/24 09:44:07;;;;;;;7.90;4.50;;;;;;;;;;5097452;28;20039;-45
2022/03/24 09:46:32;;;;;;;7.43;4.90;;;;;;;;;;5093696;28;20040;-46
2022/03/24 09:48:58;;;;;;;5.85;5.15;;;;;;;;;;5094435;28;20039;-42
2022/03/24 09:51:27;;;;;;;16.13;6.78;;;;;;;;;;5099368;28;20518;-42
2022/03/24 09:53:52;;;;;;;8.07;5.78;;;;;;;;;;5096869;28;20483;-46
2022/03/24 09:56:18;;;;;;;13.82;8.57;;;;;;;;;;5095944;28;20141;-46
2022/03/24 09:58:44;;;;;;;7.07;6.00;;;;;;;;;;5095374;28;20495;-42
2022/03/24 10:01:10;;;;;;;8.63;6.43;;;;;;;;;;5096403;28;20575;-44
2022/03/24 10:03:35;;;;;;;9.68;7.10;;;;;;;;;;5097907;28;20468;-48
2022/03/24 10:06:07;;;;;;;18.88;8.43;;;;;;;;;;5093910;28;20151;-44
2022/03/24 10:08:32;;;;;;;16.27;10.05;;;;;;;;;;5100750;28;20537;-46
2022/03/24 10:10:59;;;;;;;25.02;9.77;;;;;;;;;;5101309;28;20131;-43
2022/03/24 10:13:39;;;;;;;20.52;9.25;;;;;;;;;;5101924;28;20047;-45
2022/03/24 10:16:05;;;;;;;9.75;8.43;;;;;;;;;;5100856;28;20036;-42
2022/03/24 10:18:30;;;;;;;14.40;9.13;;;;;;;;;;5096935;28;20456;-46
2022/03/24 10:21:00;;;;;;;15.77;11.38;;;;;;;;;;5103535;28;20063;-49
2022/03/24 10:23:25;;;;;;;12.18;9.55;;;;;;;;;;5101474;28;20495;-47
2022/03/24 10:25:52;;;;;;;22.50;7.05;;;;;;;;;;5099560;28;20108;-44
2022/03/24 10:28:18;;;;;;;10.05;7.00;;;;;;;;;;5103477;28;20052;-45
2022/03/24 10:30:51;;;;;;;12.88;8.75;;;;;;;;;;5099029;28;20048;-46
2022/03/24 10:33:35;;;;;;;21.95;8.95;;;;;;;;;;5096977;28;20124;-47
2022/03/24 10:36:09;;;;;;;22.52;8.55;;;;;;;;;;5100064;28;20051;-46
2022/03/24 10:38:36;;;;;;;16.55;9.63;;;;;;;;;;5100716;28;20437;-41
2022/03/24 10:41:18;;;;;;;29.27;11.43;;;;;;;;;;5103099;28;20066;-41
2022/03/24 10:43:44;;;;;;;23.42;13.73;;;;;;;;;;5101078;28;20391;-42
2022/03/24 10:46:22;;;;;;;16.15;9.05;;;;;;;;;;5098364;28;20058;-42
2022/03/24 10:48:49;;;;;;;24.38;13.20;;;;;;;;;;5097782;28;20392;-46
2022/03/24 10:51:20;;;;;;;10.80;9.63;;;;;;;;;;5099762;28;20036;-48
2022/03/24 10:53:46;;;;;;;11.77;8.85;;;;;;;;;;5100406;28;20044;-44
2022/03/24 10:56:31;;;;;;;24.92;12.82;;;;;;;;;;5098529;28;20047;-48
2022/03/24 10:58:58;;;;;;;20.33;11.15;;;;;;;;;;5093395;28;20070;-46
2022/03/24 11:01:24;;;;;;;17.73;9.90;;;;;;;;;;5097757;28;20052;-45
2022/03/24 11:03:49;;;;;;;25.33;11.48;;;;;;;;;;5098520;28;20399;-44
2022/03/24 11:06:18;;;;;;;24.58;12.20;;;;;;;;;;5100280;28;20616;-45
2022/03/24 11:08:44;;;;;;;31.27;12.25;;;;;;;;;;5098400;28;20120;-47
2022/03/24 11:11:12;;;;;;;19.25;9.95;;;;;;;;;;5101441;28;20047;-47
2022/03/24 11:13:42;;;;;;;19.92;7.90;;;;;;;;;;5098831;28;20527;-47
2022/03/24 11:16:10;;;;;;;24.58;13.73;;;;;;;;;;5099540;28;20108;-45
2022/03/24 11:18:35;;;;;;;15.82;9.50;;;;;;;;;;5097770;28;20052;-46
2022/03/24 11:21:03;;;;;;;17.08;10.93;;;;;;;;;;5099186;28;20101;-49
2022/03/24 11:23:31;;;;;;;27.15;10.88;;;;;;;;;;5101360;28;20052;-43
2022/03/24 11:25:59;;;;;;;15.75;10.15;;;;;;;;;;5098812;28;20113;-49
2022/03/24 11:28:25;;;;;;;18.33;9.23;;;;;;;;;;5097515;28;20234;-46
2022/03/24 11:30:50;;;;;;;25.60;11.13;;;;;;;;;;5096725;28;20506;-48
2022/03/24 11:33:16;;;;;;;20.95;9.82;;;;;;;;;;5098820;28;20111;-47
2022/03/24 11:35:42;;;;;;;35.47;11.55;;;;;;;;;;5097957;28;20043;-48
2022/03/24 11:38:07;;;;;;;26.33;8.82;;;;;;;;;;5102679;28;20047;-47
2022/03/24 11:40:34;;;;;;;16.67;8.98;;;;;;;;;;5100650;28;20485;-46
2022/03/24 11:43:03;;;;;;;32.25;11.95;;;;;;;;;;5099167;28;20047;-46
2022/03/24 11:45:30;;;;;;;19.23;9.60;;;;;;;;;;5100487;28;20055;-45
2022/03/24 11:48:06;;;;;;;23.60;10.68;;;;;;;;;;5098560;28;20043;-46
2022/03/24 11:50:34;;;;;;;16.88;9.65;;;;;;;;;;5098285;28;20044;-44
2022/03/24 11:53:10;;;;;;;22.27;9.82;;;;;;;;;;5098650;28;20123;-46
2022/03/24 11:55:37;;;;;;;18.52;9.43;;;;;;;;;;5097463;28;20402;-48
2022/03/24 11:58:02;;;;;;;31.83;12.15;;;;;;;;;;5099270;28;20687;-50
2022/03/24 12:00:28;;;;;;;22.02;9.38;;;;;;;;;;5097502;28;20149;-48
2022/03/24 12:02:58;;;;;;;13.95;9.35;;;;;;;;;;5097499;28;20054;-45
2022/03/24 12:05:43;;;;;;;29.58;9.20;;;;;;;;;;5100594;28;20439;-48
2022/03/24 12:08:09;;;;;;;15.05;9.32;;;;;;;;;;5101174;28;20039;-56
2022/03/24 12:10:34;;;;;;;18.15;9.18;;;;;;;;;;5098664;28;20089;-45
2022/03/24 12:13:21;;;;;;;44.70;11.95;;;;;;;;;;5100101;28;20040;-44
2022/03/24 12:16:05;;;;;;;22.52;10.10;;;;;;;;;;5098649;28;20048;-43
2022/03/24 12:18:39;;;;;;;19.38;10.65;;;;;;;;;;5097297;28;20051;-47
2022/03/24 12:21:04;;;;;;;25.63;10.88;;;;;;;;;;5097962;28;20044;-45
2022/03/24 12:23:49;;;;;;;22.60;10.00;;;;;;;;;;5096210;28;20048;-43
2022/03/24 12:26:16;;;;;;;17.75;10.23;;;;;;;;;;5092421;28;20131;-47
2022/03/24 12:28:43;;;;;;;16.52;9.75;;;;;;;;;;5095393;28;20074;-45
2022/03/24 12:31:08;;;;;;;21.52;10.45;;;;;;;;;;5098703;28;20036;-45
2022/03/24 12:33:34;;;;;;;21.55;10.35;;;;;;;;;;5096260;28;20054;-49
2022/03/24 12:35:59;;;;;;;10.23;9.18;;;;;;;;;;5098080;28;20130;-47
2022/03/24 12:38:40;;;;;;;31.55;8.77;;;;;;;;;;5095690;28;20044;-48
2022/03/24 12:43:48;;;;;;;21.20;9.57;;;;;;;;;;5098373;28;20108;-42
2022/03/24 12:46:16;;;;;;;17.95;8.93;;;;;;;;;;5099189;28;20051;-48
2022/03/24 12:48:42;;;;;;;23.73;11.40;;;;;;;;;;5091490;28;20043;-44
2022/03/24 12:51:22;;;;;;;16.58;9.20;;;;;;;;;;5097476;28;20578;-48
2022/03/24 12:53:58;;;;;;;22.38;8.02;;;;;;;;;;5098016;28;20515;-45
2022/03/24 12:56:28;;;;;;;17.10;8.23;;;;;;;;;;5095694;28;20063;-46
2022/03/24 12:58:54;;;;;;;26.90;9.85;;;;;;;;;;5095558;28;20047;-44
2022/03/24 13:01:19;;;;;;;18.42;9.40;;;;;;;;;;5096244;28;20055;-45
2022/03/24 13:03:52;;;;;;;13.65;8.48;;;;;;;;;;5095605;28;20117;-46
2022/03/24 13:06:18;;;;;;;10.90;6.80;;;;;;;;;;5095319;28;20043;-46
2022/03/24 13:08:44;;;;;;;15.63;8.55;;;;;;;;;;5094808;28;20048;-47
2022/03/24 13:11:10;;;;;;;19.58;7.97;;;;;;;;;;5098293;28;20040;-49
2022/03/24 13:13:46;;;;;;;17.05;8.60;;;;;;;;;;5097052;28;20070;-46
2022/03/24 13:16:20;;;;;;;10.50;7.88;;;;;;;;;;5098552;28;20459;-44
2022/03/24 13:18:55;;;;;;;20.15;10.25;;;;;;;;;;5098073;28;20130;-43
2022/03/24 13:21:23;;;;;;;17.30;7.75;;;;;;;;;;5100869;28;20491;-43
2022/03/24 13:23:55;;;;;;;17.33;8.82;;;;;;;;;;5095160;28;20043;-45
2022/03/24 13:26:21;;;;;;;13.27;8.27;;;;;;;;;;5097689;28;20055;-47
2022/03/24 13:28:53;;;;;;;16.25;7.63;;;;;;;;;;5094957;28;20040;-48
2022/03/24 13:31:19;;;;;;;27.63;10.13;;;;;;;;;;5098305;28;20156;-47
2022/03/24 13:33:51;;;;;;;13.73;8.80;;;;;;;;;;5099049;27;20047;-45
2022/03/24 13:36:18;;;;;;;27.83;10.85;;;;;;;;;;5095945;28;20055;-44
2022/03/24 13:38:43;;;;;;;13.57;8.82;;;;;;;;;;5095115;28;20283;-43
2022/03/24 13:41:09;;;;;;;21.52;10.27;;;;;;;;;;5100355;28;20048;-50
2022/03/24 13:43:34;;;;;;;15.13;9.68;;;;;;;;;;5100018;28;20044;-47
2022/03/24 13:45:59;;;;;;;21.52;8.48;;;;;;;;;;5092617;28;20052;-47
2022/03/24 13:48:26;;;;;;;28.35;9.35;;;;;;;;;;5096424;28;20514;-46
2022/03/24 13:51:00;;;;;;;20.73;10.75;;;;;;;;;;5094939;28;20047;-44
2022/03/24 13:53:26;;;;;;;21.23;9.38;;;;;;;;;;5097892;28;20074;-43
2022/03/24 13:56:04;;;;;;;19.90;9.43;;;;;;;;;;5095336;28;20073;-44
2022/03/24 13:58:29;;;;;;;26.85;10.98;;;;;;;;;;5095588;28;20051;-44
2022/03/24 14:01:08;;;;;;;38.53;11.02;;;;;;;;;;5095682;28;20418;-44
2022/03/24 14:03:44;;;;;;;25.67;9.05;;;;;;;;;;5098545;28;20047;-46
2022/03/24 14:06:13;;;;;;;17.05;7.95;;;;;;;;;;5099031;28;20051;-43
2022/03/24 14:08:46;;;;;;;14.65;9.23;;;;;;;;;;5096109;28;20130;-44
2022/03/24 14:11:15;;;;;;;32.22;10.02;;;;;;;;;;5099826;28;20168;-44
2022/03/24 14:13:42;;;;;;;23.60;9.15;;;;;;;;;;5098122;28;20039;-44
2022/03/24 14:16:17;;;;;;;21.05;10.55;;;;;;;;;;5102105;28;20043;-49
2022/03/24 14:19:01;;;;;;;25.05;10.48;;;;;;;;;;5098428;28;20051;-48
2022/03/24 14:21:26;;;;;;;23.45;8.85;;;;;;;;;;5095022;28;20131;-48
2022/03/24 14:23:52;;;;;;;14.57;7.63;;;;;;;;;;5096907;28;20151;-46
2022/03/24 14:26:17;;;;;;;18.23;7.72;;;;;;;;;;5098967;28;20058;-42
2022/03/24 14:28:43;;;;;;;37.90;8.45;;;;;;;;;;5093860;28;20044;-42
2022/03/24 14:31:16;;;;;;;22.00;9.52;;;;;;;;;;5096575;28;20074;-46
2022/03/24 14:33:52;;;;;;;24.05;8.15;;;;;;;;;;5093094;28;20101;-47
2022/03/24 14:36:18;;;;;;;31.08;10.40;;;;;;;;;;5094368;28;20071;-42